Monroe, LA

9:07 PM CDT on August 30, 2015 (GMT -0500)
Deborah Drive | | Change Station
CLOSE
Current Station
Personal Weather Station
Location: Monroe, LA
Elevation: 79 ft
Nearby Weather Stations

Elev 79 ft 32.55 °N, 92.09 °W | Updated 11 seconds ago

Partly Cloudy
Partly Cloudy
86.5 °F
Feels Like 87 °F
N
0.0
Wind Variable Wind from NE
Gusts 0.0 mph

Today
High -- | Low -- °F
--% Chance of Precip.
Yesterday
High -- | Low -- °F
Precip. -- in
6:41 AM 7:35 PM
Full, 97% visible
Pressure 29.97 in
Visibility 10.0 miles
Clouds Clear
Heat Index 87 °F
Dew Point 62 °F
Humidity 44%
Rainfall 0.00 in
Snow Depth Not available.
UV 0.0 out of 12
Pollen 8.60 out of 12
Air Quality Not available.
Flu Activity Not available.
METAR KMLU 310153Z 17003KT 10SM CLR 26/19 A2997 RMK AO2 SLP148 T02610194
Pressure 29.97 in
Visibility 10.0 miles
Clouds Clear
Heat Index 87 °F
Dew Point 62 °F
Humidity 44%
Rainfall 0.00 in
Snow Depth Not available.
UV 0.0 out of 12
Pollen 8.60 out of 12
Air Quality Not available.
Flu Activity Not available.
METAR KMLU 310153Z 17003KT 10SM CLR 26/19 A2997 RMK AO2 SLP148 T02610194

10-Day Weather Forecast

×

Almanac

Astronomy

Aug. 30, 2015 Rise Set
Actual Time
Civil Twilight
Nautical Twilight
Astronomical Twilight
Moon
Length of Visible Light
Length of Day
Tomorrow will be .
, % of the Moon is Illuminated

Today's Extremes

State Highs State Lows

Community

WunderPhotos

Upload Photos

1,851,155 photos uploaded!

WunderBlogs® & News

Nearby

Air Quality

  Air Quality AQ Index Pollutant
Not available.

Snow Depth

Station Depth Elevation

Earthquake Activity

City Distance Mag. Time & Date
Minimum magnitude displayed is 2.5.

Coastal Water Temperatures

Place Temperature

Stations

Nearby Weather Stations

Station Location Temp. Windchill Dew Point Humidity Wind Precip. Elev Updated Type